Time;durP1;ratioP1;P1;durP2;ratioP2;P2;SDS_P1;SDS_P2;PMS_P1;PMS_P2;Temp;Humidity;BMP_temperature;BMP_pressure;BME280_temperature;BME280_humidity;BME280_pressure;Samples;Min_cycle;Max_cycle;Signal;HPM_P1;HPM_P2
2021/09/15 00:01:03;;;;;;;12.25;8.57;;;21.20;99.90;;;;;;5128088;28;20155;-70
2021/09/15 00:03:29;;;;;;;11.50;8.55;;;21.20;99.90;;;;;;5128089;28;20176;-70
2021/09/15 00:05:55;;;;;;;14.27;8.75;;;21.30;99.90;;;;;;5127975;28;20245;-70
2021/09/15 00:08:20;;;;;;;15.80;8.80;;;21.40;99.90;;;;;;5127295;28;20206;-70
2021/09/15 00:10:47;;;;;;;14.63;8.70;;;21.40;99.90;;;;;;5128059;28;20226;-70
2021/09/15 00:13:12;;;;;;;10.40;8.57;;;21.20;99.90;;;;;;5127908;28;20162;-70
2021/09/15 00:15:38;;;;;;;16.67;9.73;;;21.10;99.90;;;;;;5127768;28;20194;-69
2021/09/15 00:18:04;;;;;;;11.85;8.88;;;21.10;99.90;;;;;;5127701;28;20166;-70
2021/09/15 00:20:29;;;;;;;15.80;9.43;;;21.10;99.90;;;;;;5109448;28;20177;-70
2021/09/15 00:22:55;;;;;;;14.15;9.13;;;21.00;99.90;;;;;;5109067;28;20192;-70
2021/09/15 00:25:21;;;;;;;9.98;8.98;;;21.00;99.90;;;;;;5127700;28;20151;-70
2021/09/15 00:27:46;;;;;;;9.40;7.80;;;21.10;99.90;;;;;;5127484;28;20166;-70
2021/09/15 00:30:12;;;;;;;8.32;7.28;;;21.10;99.90;;;;;;5127446;28;20167;-70
2021/09/15 00:32:38;;;;;;;11.13;7.65;;;21.10;99.90;;;;;;5127524;28;20158;-70
2021/09/15 00:35:07;;;;;;;12.07;8.20;;;21.20;99.90;;;;;;5127431;28;20700;-70
2021/09/15 00:37:32;;;;;;;17.35;8.52;;;21.20;99.90;;;;;;5127238;28;20158;-70
2021/09/15 00:39:58;;;;;;;15.45;8.68;;;21.20;99.90;;;;;;5127127;28;20167;-70
2021/09/15 00:42:24;;;;;;;16.92;9.30;;;21.40;99.90;;;;;;5127275;28;20226;-70
2021/09/15 00:44:49;;;;;;;14.68;9.02;;;21.40;99.90;;;;;;5108849;28;20184;-70
2021/09/15 00:47:15;;;;;;;14.85;8.70;;;21.40;99.90;;;;;;5127103;28;20185;-70
2021/09/15 00:49:40;;;;;;;13.27;8.65;;;21.40;99.90;;;;;;5126957;28;20181;-70
2021/09/15 00:52:07;;;;;;;14.80;8.98;;;21.60;99.90;;;;;;5127203;28;20166;-70
2021/09/15 00:54:33;;;;;;;9.50;8.20;;;21.50;99.90;;;;;;5126714;28;20179;-70
2021/09/15 00:56:58;;;;;;;13.73;8.52;;;21.50;99.90;;;;;;5108753;28;20162;-70
2021/09/15 00:59:24;;;;;;;10.10;8.07;;;21.30;99.90;;;;;;5125995;28;20170;-70
2021/09/15 01:01:49;;;;;;;16.10;8.57;;;21.30;99.90;;;;;;5127048;28;20187;-70
2021/09/15 01:04:15;;;;;;;11.57;7.75;;;21.20;99.90;;;;;;5126502;28;20182;-70
2021/09/15 01:06:43;;;;;;;12.32;8.57;;;21.20;99.90;;;;;;5126974;28;20158;-70
2021/09/15 01:09:10;;;;;;;13.93;8.70;;;21.30;99.90;;;;;;5126352;28;20216;-70
2021/09/15 01:11:37;;;;;;;11.05;8.90;;;21.30;99.90;;;;;;5127053;28;20170;-70
2021/09/15 01:14:04;;;;;;;10.13;8.77;;;21.30;99.90;;;;;;5108380;28;20243;-70
2021/09/15 01:16:59;;;;;;;12.48;8.50;;;21.30;99.90;;;;;;5126993;28;20155;-70
2021/09/15 01:19:25;;;;;;;13.70;9.88;;;21.30;99.90;;;;;;5126552;28;20249;-70
2021/09/15 01:21:53;;;;;;;14.18;9.65;;;21.30;99.90;;;;;;5126911;28;20161;-70
2021/09/15 01:24:20;;;;;;;17.45;10.13;;;21.40;99.90;;;;;;5126253;28;20238;-70
2021/09/15 01:26:46;;;;;;;23.35;11.50;;;21.30;99.90;;;;;;5126635;28;20173;-70
2021/09/15 01:29:14;;;;;;;19.23;11.23;;;21.50;99.90;;;;;;5126467;28;20245;-70
2021/09/15 01:32:13;;;;;;;15.73;10.70;;;21.50;99.90;;;;;;5126665;28;20211;-70
2021/09/15 01:34:41;;;;;;;17.70;11.07;;;21.40;99.90;;;;;;5126016;28;20285;-70
2021/09/15 01:37:09;;;;;;;13.40;9.70;;;21.30;99.90;;;;;;5108450;28;20169;-70
2021/09/15 01:39:34;;;;;;;14.93;10.60;;;21.00;99.90;;;;;;5126024;28;20253;-70
2021/09/15 01:42:02;;;;;;;15.70;10.77;;;21.10;99.90;;;;;;5126601;28;20155;-70
2021/09/15 01:44:35;;;;;;;15.38;10.85;;;21.10;99.90;;;;;;5126521;28;20159;-70
2021/09/15 01:47:05;;;;;;;17.33;11.00;;;21.10;99.90;;;;;;5126576;28;20163;-70
2021/09/15 01:49:32;;;;;;;18.00;11.23;;;21.10;99.90;;;;;;5126253;28;20173;-70
2021/09/15 01:51:59;;;;;;;18.30;11.60;;;21.10;99.90;;;;;;5126640;28;20170;-70
2021/09/15 01:54:26;;;;;;;24.20;11.63;;;21.10;99.90;;;;;;5126055;28;20193;-70
2021/09/15 01:56:52;;;;;;;27.48;12.90;;;21.10;99.90;;;;;;5126390;28;20155;-70
2021/09/15 01:59:18;;;;;;;23.83;12.65;;;21.00;99.90;;;;;;5126117;28;20170;-70
2021/09/15 02:01:44;;;;;;;20.42;12.45;;;21.10;99.90;;;;;;5126570;28;20155;-70
2021/09/15 02:04:10;;;;;;;19.88;11.65;;;21.10;99.90;;;;;;5126223;28;20163;-70
2021/09/15 02:06:36;;;;;;;21.65;12.52;;;21.20;99.90;;;;;;5126296;28;20242;-70
2021/09/15 02:09:05;;;;;;;18.83;11.98;;;21.20;99.90;;;;;;5107311;28;20232;-70
2021/09/15 02:11:32;;;;;;;21.25;11.38;;;21.30;99.90;;;;;;5128790;28;20159;-70
2021/09/15 02:13:57;;;;;;;20.48;12.73;;;21.20;99.90;;;;;;5130135;28;20163;-70
2021/09/15 02:16:24;;;;;;;21.08;13.52;;;21.20;99.90;;;;;;5111902;28;20170;-70
2021/09/15 02:18:49;;;;;;;20.20;12.50;;;21.20;99.90;;;;;;5129658;28;20181;-70
2021/09/15 02:21:16;;;;;;;22.25;12.82;;;21.10;99.90;;;;;;5130288;28;20155;-70
2021/09/15 02:23:42;;;;;;;26.38;13.27;;;21.10;99.90;;;;;;5129779;28;20171;-70
2021/09/15 02:26:07;;;;;;;19.75;11.75;;;21.10;99.90;;;;;;5130286;28;20213;-70
2021/09/15 02:28:33;;;;;;;18.38;12.23;;;21.10;99.90;;;;;;5129705;28;20179;-70
2021/09/15 02:30:59;;;;;;;20.27;12.65;;;21.00;99.90;;;;;;5129934;28;20154;-70
2021/09/15 02:33:24;;;;;;;17.38;11.48;;;20.90;99.90;;;;;;5130141;28;20191;-70
2021/09/15 02:35:50;;;;;;;22.23;12.48;;;21.00;99.90;;;;;;5130002;28;20581;-70
2021/09/15 02:38:16;;;;;;;25.05;14.55;;;21.00;99.90;;;;;;5110989;28;20535;-70
2021/09/15 02:40:42;;;;;;;22.23;13.60;;;21.20;99.90;;;;;;5129590;28;20150;-70
2021/09/15 02:43:07;;;;;;;27.00;13.60;;;21.20;99.90;;;;;;5111566;28;20159;-70
2021/09/15 02:45:33;;;;;;;25.80;14.27;;;21.20;99.90;;;;;;5129634;28;20159;-70
2021/09/15 02:47:59;;;;;;;22.88;14.02;;;21.20;99.90;;;;;;5129546;28;20638;-70
2021/09/15 02:50:24;;;;;;;31.30;14.50;;;21.30;99.90;;;;;;5111254;28;20253;-70
2021/09/15 02:52:50;;;;;;;30.35;15.25;;;21.30;99.90;;;;;;5110996;28;20274;-69
2021/09/15 02:55:16;;;;;;;30.33;14.80;;;21.40;99.90;;;;;;5129536;28;20182;-70
2021/09/15 02:57:41;;;;;;;23.92;13.85;;;21.30;99.90;;;;;;5111017;28;20182;-70
2021/09/15 03:00:08;;;;;;;28.42;14.95;;;21.30;99.90;;;;;;5129237;28;20159;-70
2021/09/15 03:02:33;;;;;;;28.45;15.32;;;21.20;99.90;;;;;;5129527;28;20170;-70
2021/09/15 03:04:59;;;;;;;31.20;16.38;;;21.10;99.90;;;;;;5129355;28;20162;-70
2021/09/15 03:07:25;;;;;;;29.13;15.23;;;21.30;99.90;;;;;;5110972;28;20636;-70
2021/09/15 03:09:50;;;;;;;34.83;15.82;;;21.40;99.90;;;;;;5110392;28;20297;-70
2021/09/15 03:12:16;;;;;;;29.80;15.63;;;21.40;99.90;;;;;;5129450;28;20190;-70
2021/09/15 03:14:42;;;;;;;34.33;16.75;;;21.50;99.90;;;;;;5129073;28;20206;-70
2021/09/15 03:17:07;;;;;;;28.27;16.83;;;21.40;99.90;;;;;;5129318;28;20158;-70
2021/09/15 03:19:33;;;;;;;25.05;15.55;;;21.20;99.90;;;;;;5128587;28;20198;-70
2021/09/15 03:21:58;;;;;;;29.77;16.30;;;21.10;99.90;;;;;;5110331;28;20166;-70
2021/09/15 03:24:24;;;;;;;22.75;14.10;;;21.00;99.90;;;;;;5128574;28;20245;-70
2021/09/15 03:26:50;;;;;;;23.65;15.43;;;21.00;99.90;;;;;;5129223;28;20165;-70
2021/09/15 03:29:16;;;;;;;25.20;14.88;;;20.90;99.90;;;;;;5128693;28;20239;-70
2021/09/15 03:31:41;;;;;;;29.67;15.00;;;21.00;99.90;;;;;;5128984;28;20410;-70
2021/09/15 03:34:07;;;;;;;27.73;13.77;;;21.00;99.90;;;;;;5128881;28;20183;-70
2021/09/15 03:36:33;;;;;;;21.15;15.10;;;21.00;99.90;;;;;;5128945;28;20257;-70
2021/09/15 03:38:58;;;;;;;25.73;14.85;;;21.00;99.90;;;;;;5128165;28;20226;-70
2021/09/15 03:41:24;;;;;;;25.98;14.38;;;21.00;99.90;;;;;;5128655;28;20655;-70
2021/09/15 03:43:51;;;;;;;26.33;15.90;;;21.00;99.90;;;;;;5110195;28;20615;-70
2021/09/15 03:46:17;;;;;;;27.92;16.58;;;21.00;99.90;;;;;;5128557;28;20167;-70
2021/09/15 03:48:42;;;;;;;29.48;16.00;;;21.10;99.90;;;;;;5128361;28;20244;-70
2021/09/15 03:51:08;;;;;;;25.83;16.50;;;21.10;99.90;;;;;;5128547;28;20170;-70
2021/09/15 03:53:34;;;;;;;24.58;14.85;;;21.00;99.90;;;;;;5128017;28;20173;-70
2021/09/15 03:55:59;;;;;;;28.70;16.48;;;21.00;99.90;;;;;;5128361;28;20241;-70
2021/09/15 03:58:25;;;;;;;28.52;15.88;;;21.00;99.90;;;;;;5128104;28;20683;-70
2021/09/15 04:00:50;;;;;;;38.70;16.27;;;20.90;99.90;;;;;;5128008;28;20155;-70
2021/09/15 04:03:16;;;;;;;37.17;16.45;;;20.90;99.90;;;;;;5128168;28;20169;-70
2021/09/15 04:05:42;;;;;;;27.20;16.75;;;20.70;99.90;;;;;;5127988;28;20162;-70
2021/09/15 04:08:07;;;;;;;25.45;16.38;;;20.60;99.90;;;;;;5127525;28;20214;-70
2021/09/15 04:10:33;;;;;;;32.63;16.73;;;20.50;99.90;;;;;;5127953;28;20179;-70
2021/09/15 04:12:59;;;;;;;23.88;16.17;;;20.50;99.90;;;;;;5128095;28;20569;-70
2021/09/15 04:15:24;;;;;;;26.92;17.20;;;20.40;99.90;;;;;;5127774;28;20216;-70
2021/09/15 04:17:50;;;;;;;27.25;19.20;;;20.40;99.90;;;;;;5127828;28;20223;-70
2021/09/15 04:20:16;;;;;;;33.95;19.70;;;20.20;99.90;;;;;;5109063;28;20166;-70
2021/09/15 04:22:42;;;;;;;26.60;19.10;;;20.20;99.90;;;;;;5127835;28;20163;-70
2021/09/15 04:33:22;;;;;;;28.77;20.65;;;20.00;99.90;;;;;;5127298;28;20162;-70
2021/09/15 04:35:48;;;;;;;36.22;22.40;;;20.00;99.90;;;;;;5127139;28;20182;-70
2021/09/15 04:38:13;;;;;;;30.98;22.40;;;19.90;99.90;;;;;;5127144;28;20185;-70
2021/09/15 04:40:39;;;;;;;31.20;21.33;;;20.00;99.90;;;;;;5127185;28;20166;-70
2021/09/15 04:43:04;;;;;;;29.90;23.17;;;19.90;99.90;;;;;;5127352;28;20163;-70
2021/09/15 04:45:31;;;;;;;30.33;23.48;;;19.90;99.90;;;;;;5127144;28;20277;-70
2021/09/15 04:47:57;;;;;;;36.53;23.33;;;19.90;99.90;;;;;;5127052;28;20226;-70
2021/09/15 04:50:22;;;;;;;31.17;22.95;;;19.90;99.90;;;;;;5127056;28;20177;-70
2021/09/15 04:52:48;;;;;;;34.67;23.70;;;19.90;99.90;;;;;;5127234;28;20166;-70
2021/09/15 04:55:13;;;;;;;36.13;24.85;;;19.90;99.90;;;;;;5126724;28;20179;-70
2021/09/15 04:57:39;;;;;;;40.92;26.35;;;20.00;99.90;;;;;;5108625;28;20216;-70
2021/09/15 05:00:05;;;;;;;37.90;26.63;;;20.00;99.90;;;;;;5126827;28;20226;-70
2021/09/15 05:02:31;;;;;;;46.13;28.38;;;20.00;99.90;;;;;;5127143;28;20216;-70
2021/09/15 05:04:57;;;;;;;43.25;29.95;;;20.10;99.90;;;;;;5127024;28;20166;-70
2021/09/15 05:07:22;;;;;;;48.05;32.40;;;20.00;99.90;;;;;;5127108;28;20158;-70
2021/09/15 05:09:48;;;;;;;49.17;33.78;;;19.90;99.90;;;;;;5126272;28;20215;-69
2021/09/15 05:12:14;;;;;;;51.90;33.92;;;19.90;99.90;;;;;;5126964;28;20166;-70
2021/09/15 05:14:39;;;;;;;54.03;35.28;;;19.80;99.90;;;;;;5126698;28;20250;-70
2021/09/15 05:17:05;;;;;;;47.30;33.65;;;19.70;99.90;;;;;;5127057;28;20187;-70
2021/09/15 05:19:30;;;;;;;53.45;35.80;;;19.70;99.90;;;;;;5126515;28;20158;-69
2021/09/15 05:21:56;;;;;;;61.13;37.60;;;19.60;99.90;;;;;;5126947;28;20222;-70
2021/09/15 05:24:22;;;;;;;67.10;40.85;;;19.60;99.90;;;;;;5108158;28;20193;-70
2021/09/15 05:26:47;;;;;;;75.25;42.17;;;19.50;99.90;;;;;;5108501;28;20162;-70
2021/09/15 05:29:13;;;;;;;74.07;44.22;;;19.40;99.90;;;;;;5126339;28;20201;-70
2021/09/15 05:31:39;;;;;;;75.10;43.92;;;19.40;99.90;;;;;;5126554;28;20158;-70
2021/09/15 05:34:04;;;;;;;82.68;45.00;;;19.50;99.90;;;;;;5126456;28;20222;-70
2021/09/15 05:36:30;;;;;;;94.80;51.87;;;19.50;99.90;;;;;;5125598;28;20399;-70
2021/09/15 05:38:56;;;;;;;79.78;45.53;;;19.80;99.90;;;;;;5126248;28;20218;-70
2021/09/15 05:41:21;;;;;;;90.15;46.53;;;19.70;99.90;;;;;;5108279;28;20235;-70
2021/09/15 05:43:47;;;;;;;87.65;45.25;;;19.80;99.90;;;;;;5108350;28;20167;-70
2021/09/15 05:46:13;;;;;;;87.82;48.15;;;19.80;99.90;;;;;;5128292;28;20407;-70
2021/09/15 05:48:38;;;;;;;79.78;45.17;;;19.90;99.90;;;;;;5112292;28;20174;-70
2021/09/15 05:51:04;;;;;;;79.70;43.88;;;19.90;99.90;;;;;;5130722;28;20542;-70
2021/09/15 05:53:31;;;;;;;77.28;43.45;;;20.00;99.90;;;;;;5130354;28;20174;-70
2021/09/15 05:55:57;;;;;;;84.10;43.53;;;20.00;99.90;;;;;;5130625;28;20186;-70
2021/09/15 05:58:22;;;;;;;78.15;44.60;;;20.10;99.90;;;;;;5130252;28;20162;-70
2021/09/15 06:00:48;;;;;;;81.28;47.15;;;20.10;99.90;;;;;;5130429;28;20228;-70
2021/09/15 06:03:14;;;;;;;75.38;43.28;;;20.00;99.90;;;;;;5130489;28;20226;-70
2021/09/15 06:05:39;;;;;;;77.45;44.55;;;20.00;99.90;;;;;;5111986;28;20196;-70
2021/09/15 06:08:05;;;;;;;90.22;47.75;;;19.90;99.90;;;;;;5130061;28;20212;-70
2021/09/15 06:10:31;;;;;;;95.75;48.08;;;19.90;99.90;;;;;;5130238;28;20167;-70
2021/09/15 06:12:56;;;;;;;96.80;49.30;;;19.70;99.90;;;;;;5130387;28;20190;-70
2021/09/15 06:15:22;;;;;;;90.47;49.30;;;19.60;99.90;;;;;;5130249;28;20213;-70
2021/09/15 06:17:47;;;;;;;101.35;51.92;;;19.50;99.90;;;;;;5130165;28;20163;-70
2021/09/15 06:20:13;;;;;;;103.10;51.03;;;19.30;99.90;;;;;;5129946;28;20193;-70
2021/09/15 06:22:39;;;;;;;101.70;53.80;;;19.30;99.90;;;;;;5130164;28;20154;-70
2021/09/15 06:25:06;;;;;;;109.65;57.50;;;19.20;99.90;;;;;;5129801;28;20177;-70
2021/09/15 06:27:32;;;;;;;99.30;56.88;;;19.20;99.90;;;;;;5130141;28;20158;-70
2021/09/15 06:29:57;;;;;;;100.53;59.03;;;19.10;99.90;;;;;;5129707;28;20177;-70
2021/09/15 06:32:25;;;;;;;99.05;56.95;;;19.10;99.90;;;;;;5111697;28;20329;-70
2021/09/15 06:34:51;;;;;;;101.18;59.55;;;19.10;99.90;;;;;;5129825;28;20209;-70
2021/09/15 06:37:17;;;;;;;104.50;60.55;;;19.20;99.90;;;;;;5130064;28;20190;-70
2021/09/15 06:39:43;;;;;;;105.07;61.20;;;19.20;99.90;;;;;;5129194;28;20277;-70
2021/09/15 06:42:09;;;;;;;99.70;59.42;;;19.20;99.90;;;;;;5111355;28;20169;-70
2021/09/15 06:44:35;;;;;;;111.82;59.53;;;19.20;99.90;;;;;;5129720;28;20158;-70
2021/09/15 06:47:01;;;;;;;105.35;60.50;;;19.20;99.90;;;;;;5111384;28;20162;-70
2021/09/15 06:49:26;;;;;;;108.35;59.35;;;19.30;99.90;;;;;;5129310;28;20256;-70
2021/09/15 06:51:52;;;;;;;113.43;59.25;;;19.30;99.90;;;;;;5129789;28;20163;-70
2021/09/15 06:54:18;;;;;;;98.20;58.38;;;19.40;99.90;;;;;;5129081;28;20193;-70
2021/09/15 06:56:45;;;;;;;97.30;56.70;;;19.50;99.90;;;;;;5128625;28;20170;-70
2021/09/15 06:59:11;;;;;;;98.13;57.75;;;19.70;99.90;;;;;;5128501;28;20166;-70
2021/09/15 07:01:37;;;;;;;100.50;60.13;;;19.90;99.90;;;;;;5129416;28;20569;-70
2021/09/15 07:04:02;;;;;;;99.30;56.63;;;19.90;99.90;;;;;;5129370;28;20164;-70
2021/09/15 07:06:28;;;;;;;96.00;57.90;;;20.00;99.90;;;;;;5129165;28;20162;-70
2021/09/15 07:08:54;;;;;;;95.90;57.10;;;20.00;99.90;;;;;;5128733;28;20210;-70
2021/09/15 07:11:20;;;;;;;89.22;54.95;;;20.10;99.90;;;;;;5129359;28;20159;-70
2021/09/15 07:13:46;;;;;;;87.40;54.78;;;20.10;99.90;;;;;;5129116;28;20235;-70
2021/09/15 07:16:12;;;;;;;84.50;53.90;;;20.20;99.90;;;;;;5129009;28;20190;-70
2021/09/15 07:18:38;;;;;;;81.22;51.65;;;20.20;99.90;;;;;;5128911;28;20637;-70
2021/09/15 07:21:03;;;;;;;82.30;50.08;;;20.30;99.90;;;;;;5129035;28;20159;-70
2021/09/15 07:23:29;;;;;;;82.90;48.65;;;20.40;99.90;;;;;;5110394;28;20175;-70
2021/09/15 07:25:55;;;;;;;81.80;48.15;;;20.50;99.90;;;;;;5128966;28;20147;-71
2021/09/15 07:28:21;;;;;;;70.63;45.83;;;20.50;99.90;;;;;;5128756;28;20209;-71
2021/09/15 07:30:47;;;;;;;72.75;46.30;;;20.50;99.90;;;;;;5128513;28;20621;-70
2021/09/15 07:33:14;;;;;;;71.30;46.00;;;20.60;99.90;;;;;;5110436;28;20159;-70
2021/09/15 07:35:40;;;;;;;66.07;43.75;;;20.60;99.90;;;;;;5128739;28;20186;-70
2021/09/15 07:38:05;;;;;;;66.80;43.38;;;20.40;99.90;;;;;;5128283;28;20165;-70
2021/09/15 07:40:31;;;;;;;67.13;45.00;;;20.30;99.90;;;;;;5128425;28;20185;-70
2021/09/15 07:42:57;;;;;;;64.88;43.30;;;20.40;99.90;;;;;;5109887;28;20181;-70
2021/09/15 07:45:23;;;;;;;70.38;46.00;;;20.30;99.90;;;;;;5127464;28;20154;-70
2021/09/15 07:47:49;;;;;;;69.20;42.42;;;20.20;99.90;;;;;;5128151;28;20173;-70
2021/09/15 07:50:14;;;;;;;63.78;42.15;;;20.20;99.90;;;;;;5127741;28;20651;-71
2021/09/15 07:52:40;;;;;;;65.07;42.67;;;20.30;99.90;;;;;;5128150;28;20158;-70
2021/09/15 07:55:06;;;;;;;61.08;40.60;;;20.60;99.90;;;;;;5127566;28;20325;-70
2021/09/15 07:57:33;;;;;;;58.42;40.25;;;20.50;99.90;;;;;;5127920;28;20604;-70
2021/09/15 07:59:58;;;;;;;57.65;40.70;;;20.60;99.90;;;;;;5127627;28;20256;-70
2021/09/15 08:02:24;;;;;;;65.85;40.88;;;20.50;99.90;;;;;;5109476;28;20182;-70
2021/09/15 08:04:50;;;;;;;57.83;39.13;;;20.40;99.90;;;;;;5126632;28;20158;-70
2021/09/15 08:07:16;;;;;;;56.20;39.55;;;20.30;99.90;;;;;;5126529;28;20162;-70
2021/09/15 08:09:42;;;;;;;57.85;39.72;;;20.30;99.90;;;;;;5126203;28;20588;-70
2021/09/15 08:12:08;;;;;;;53.28;37.25;;;20.20;99.90;;;;;;5108183;28;20635;-70
2021/09/15 08:14:33;;;;;;;59.58;37.88;;;20.20;99.90;;;;;;5127621;28;20261;-70
2021/09/15 08:16:59;;;;;;;50.85;35.80;;;20.40;99.90;;;;;;5127549;28;20163;-70
2021/09/15 08:19:26;;;;;;;54.25;38.70;;;20.50;99.90;;;;;;5127484;28;20177;-70
2021/09/15 08:21:53;;;;;;;55.60;38.45;;;20.50;99.90;;;;;;5127564;28;20216;-71
2021/09/15 08:24:18;;;;;;;59.80;41.22;;;20.40;99.90;;;;;;5126905;28;20174;-71
2021/09/15 08:26:44;;;;;;;64.53;41.85;;;20.40;99.90;;;;;;5127478;28;20192;-71
2021/09/15 08:29:10;;;;;;;61.17;41.65;;;20.50;99.90;;;;;;5126832;28;20175;-70
2021/09/15 08:31:36;;;;;;;69.47;41.42;;;20.40;99.90;;;;;;5127097;28;20166;-70
2021/09/15 08:34:01;;;;;;;60.97;41.17;;;20.20;99.90;;;;;;5127198;28;20159;-70
2021/09/15 08:36:27;;;;;;;58.20;39.55;;;20.10;99.90;;;;;;5126989;28;20154;-70
2021/09/15 08:38:53;;;;;;;58.38;41.13;;;20.10;99.90;;;;;;5108255;28;20166;-70
2021/09/15 08:41:19;;;;;;;57.63;38.95;;;20.10;99.90;;;;;;5126248;28;20159;-70
2021/09/15 08:43:45;;;;;;;59.33;40.15;;;20.10;99.90;;;;;;5127066;28;20163;-70
2021/09/15 08:46:17;;;;;;;57.58;40.50;;;20.30;99.90;;;;;;5126860;28;20163;-71
2021/09/15 08:48:45;;;;;;;57.58;40.28;;;20.50;99.90;;;;;;5126564;28;20167;-71
2021/09/15 08:51:16;;;;;;;50.15;36.83;;;20.30;99.90;;;;;;5125771;28;20177;-70
2021/09/15 08:53:44;;;;;;;44.05;34.55;;;20.00;99.90;;;;;;5126469;28;20242;-70
2021/09/15 08:56:11;;;;;;;45.03;32.50;;;20.00;99.90;;;;;;5126747;28;20178;-70
2021/09/15 08:58:38;;;;;;;40.17;31.95;;;20.00;99.90;;;;;;5126567;28;20163;-70
2021/09/15 09:01:20;;;;;;;38.03;31.70;;;19.70;99.90;;;;;;5126644;28;20257;-71
2021/09/15 09:03:48;;;;;;;37.25;29.50;;;19.60;99.90;;;;;;5126986;28;20151;-70
2021/09/15 09:06:17;;;;;;;32.55;28.48;;;19.70;99.90;;;;;;5108361;28;20208;-70
2021/09/15 09:08:45;;;;;;;31.90;24.85;;;19.60;99.90;;;;;;5126610;28;20211;-70
2021/09/15 09:11:12;;;;;;;28.33;24.08;;;19.60;99.90;;;;;;5126617;28;20292;-70
2021/09/15 09:13:50;;;;;;;25.50;21.35;;;19.40;99.90;;;;;;5107894;28;20541;-70
2021/09/15 09:16:19;;;;;;;26.90;21.33;;;19.30;99.90;;;;;;5126271;28;20183;-70
2021/09/15 09:18:59;;;;;;;25.70;22.15;;;19.30;99.90;;;;;;5126410;28;20324;-70
2021/09/15 09:21:30;;;;;;;24.85;20.38;;;19.20;99.90;;;;;;5125792;28;20498;-70
2021/09/15 09:24:02;;;;;;;27.23;19.67;;;19.20;99.90;;;;;;5126052;28;20191;-70
2021/09/15 09:26:56;;;;;;;24.17;17.85;;;19.30;99.90;;;;;;5126550;28;20159;-70
2021/09/15 09:29:27;;;;;;;20.90;16.80;;;19.40;99.90;;;;;;5126019;28;20223;-70
2021/09/15 09:31:58;;;;;;;17.45;15.18;;;19.40;99.90;;;;;;5126621;28;20144;-70
2021/09/15 09:34:24;;;;;;;19.50;15.25;;;19.40;99.90;;;;;;5126156;28;20212;-69
2021/09/15 09:37:06;;;;;;;15.52;13.95;;;19.30;99.90;;;;;;5125734;28;20151;-70
2021/09/15 09:39:36;;;;;;;18.70;14.00;;;19.20;99.90;;;;;;5125366;28;20170;-70
2021/09/15 09:42:02;;;;;;;17.83;13.90;;;19.30;99.90;;;;;;5125942;28;20165;-70
2021/09/15 09:44:28;;;;;;;14.20;12.70;;;19.50;99.90;;;;;;5125977;28;20246;-70
2021/09/15 09:46:54;;;;;;;14.85;11.90;;;19.70;99.90;;;;;;5126485;28;20241;-70
2021/09/15 09:49:19;;;;;;;15.02;13.38;;;20.00;99.90;;;;;;5126024;28;20174;-70
2021/09/15 09:51:45;;;;;;;19.77;14.57;;;20.30;99.90;;;;;;5126323;28;20162;-70
2021/09/15 09:54:18;;;;;;;15.57;13.82;;;20.60;99.90;;;;;;5107820;28;20576;-70
2021/09/15 09:56:45;;;;;;;15.35;12.13;;;20.80;99.90;;;;;;5126225;28;20158;-70
2021/09/15 09:59:12;;;;;;;15.10;11.98;;;20.80;99.90;;;;;;5107510;28;20163;-70
2021/09/15 10:01:46;;;;;;;13.55;12.10;;;20.90;99.90;;;;;;5125943;28;20155;-70
2021/09/15 10:04:14;;;;;;;13.77;12.38;;;21.00;99.90;;;;;;5126034;28;20159;-70
2021/09/15 10:06:41;;;;;;;26.75;16.00;;;20.70;99.90;;;;;;5107655;28;20161;-70
2021/09/15 10:09:08;;;;;;;18.58;13.93;;;20.60;99.90;;;;;;5107074;28;20283;-70
2021/09/15 10:11:35;;;;;;;21.25;16.90;;;20.50;99.90;;;;;;5126026;28;20238;-70
2021/09/15 10:14:02;;;;;;;21.77;17.67;;;20.50;99.90;;;;;;5126038;28;20180;-70
2021/09/15 10:16:28;;;;;;;30.13;18.63;;;20.50;99.90;;;;;;5126233;28;20194;-69
2021/09/15 10:19:05;;;;;;;23.88;17.25;;;20.50;99.90;;;;;;5125765;28;20166;-70
2021/09/15 10:21:34;;;;;;;17.75;13.45;;;20.80;99.90;;;;;;5107746;28;20159;-70
2021/09/15 10:24:02;;;;;;;19.52;16.52;;;21.00;99.90;;;;;;5125565;28;20181;-70
2021/09/15 10:26:36;;;;;;;17.77;15.57;;;21.10;99.90;;;;;;5125788;28;20166;-70
2021/09/15 10:29:28;;;;;;;23.58;15.60;;;21.40;99.90;;;;;;5125424;28;20159;-70
2021/09/15 10:32:14;;;;;;;16.80;14.07;;;21.60;99.90;;;;;;5127402;28;20227;-70
2021/09/15 10:34:39;;;;;;;15.80;12.93;;;21.50;99.90;;;;;;5129703;28;20182;-70
2021/09/15 10:37:11;;;;;;;13.43;12.00;;;21.40;99.90;;;;;;5129798;28;20526;-70
2021/09/15 10:39:55;;;;;;;13.95;12.50;;;21.30;99.90;;;;;;5129051;28;20171;-69
2021/09/15 10:42:39;;;;;;;17.88;10.40;;;21.30;99.90;;;;;;5129485;28;20647;-70
2021/09/15 10:45:14;;;;;;;10.23;9.10;;;21.60;99.90;;;;;;5129489;28;20173;-70
2021/09/15 10:47:45;;;;;;;11.30;7.75;;;21.40;99.90;;;;;;5129696;28;20186;-70
2021/09/15 10:50:30;;;;;;;8.95;7.10;;;21.40;99.90;;;;;;5129328;28;20547;-70
2021/09/15 10:53:07;;;;;;;6.47;5.80;;;21.40;99.90;;;;;;5129782;28;20180;-70
2021/09/15 10:55:45;;;;;;;8.60;6.47;;;21.50;99.90;;;;;;5129057;28;20182;-70
2021/09/15 10:58:25;;;;;;;7.88;6.15;;;21.60;99.90;;;;;;5111120;28;20190;-70
2021/09/15 11:01:03;;;;;;;7.50;6.68;;;21.60;99.90;;;;;;5110836;28;20181;-70
2021/09/15 11:03:33;;;;;;;8.95;8.07;;;21.50;99.90;;;;;;5129697;28;20158;-70
2021/09/15 11:06:08;;;;;;;9.45;7.28;;;21.50;99.90;;;;;;5129085;28;20212;-70
2021/09/15 11:08:42;;;;;;;9.13;8.20;;;21.60;99.90;;;;;;5128655;28;20214;-70
2021/09/15 11:11:11;;;;;;;13.55;9.90;;;22.30;99.90;;;;;;5128693;28;20191;-70
2021/09/15 11:13:37;;;;;;;17.05;8.77;;;22.70;99.90;;;;;;5110941;28;20166;-70
2021/09/15 11:16:35;;;;;;;13.90;9.43;;;23.20;99.90;;;;;;5128326;28;20190;-70
2021/09/15 11:19:13;;;;;;;11.43;9.27;;;23.70;99.90;;;;;;5110667;28;20155;-70
2021/09/15 11:21:40;;;;;;;13.23;10.43;;;23.90;99.90;;;;;;5129005;28;20158;-70
2021/09/15 11:24:10;;;;;;;12.70;8.70;;;23.40;99.90;;;;;;5128707;28;20171;-70
2021/09/15 11:26:42;;;;;;;13.75;5.47;;;23.30;99.90;;;;;;5128887;28;20518;-70
2021/09/15 11:29:08;;;;;;;10.88;5.78;;;23.30;99.90;;;;;;5144223;27;20237;-70
2021/09/15 11:31:35;;;;;;;6.55;5.38;;;23.00;99.90;;;;;;5128303;28;20159;-70
2021/09/15 11:34:09;;;;;;;10.23;5.22;;;22.80;99.90;;;;;;5128533;28;20219;-70
2021/09/15 11:36:36;;;;;;;10.55;4.95;;;22.80;99.90;;;;;;5128432;28;20162;-70
2021/09/15 11:39:03;;;;;;;14.35;6.30;;;23.10;99.90;;;;;;5127182;28;20171;-70
2021/09/15 11:41:28;;;;;;;10.85;4.80;;;23.50;99.90;;;;;;5128249;28;20174;-71
2021/09/15 11:43:54;;;;;;;11.75;3.78;;;23.50;99.90;;;;;;5109201;28;20154;-70
2021/09/15 11:46:29;;;;;;;9.00;4.03;;;23.70;99.90;;;;;;5128381;28;20189;-70
2021/09/15 11:48:55;;;;;;;10.88;3.70;;;23.50;99.90;;;;;;5128165;28;20150;-69
2021/09/15 11:51:22;;;;;;;8.38;3.58;;;22.90;99.90;;;;;;5128083;28;20166;-69
2021/09/15 11:54:06;;;;;;;14.10;3.53;;;22.30;99.90;;;;;;5143719;27;20292;-69
2021/09/15 11:56:41;;;;;;;9.02;3.20;;;22.50;99.90;;;;;;5128260;28;20150;-70
2021/09/15 11:59:07;;;;;;;8.35;2.90;;;22.40;99.90;;;;;;5127792;28;20257;-69
2021/09/15 12:01:35;;;;;;;5.25;2.80;;;22.40;99.90;;;;;;5127856;28;20163;-70
2021/09/15 12:04:04;;;;;;;6.47;2.85;;;21.90;99.90;;;;;;5127821;28;20453;-69
2021/09/15 12:06:30;;;;;;;6.82;3.78;;;21.40;99.90;;;;;;5127883;28;20670;-69
2021/09/15 12:08:59;;;;;;;7.10;2.78;;;21.30;99.90;;;;;;5127458;28;20214;-71
2021/09/15 12:11:36;;;;;;;9.57;2.95;;;21.30;99.90;;;;;;5127750;28;20171;-70
2021/09/15 12:14:07;;;;;;;7.40;3.40;;;21.30;99.90;;;;;;5127893;28;20221;-70
2021/09/15 12:16:38;;;;;;;7.20;2.90;;;21.30;99.90;;;;;;5127939;28;20151;-70
2021/09/15 12:19:15;;;;;;;7.57;2.45;;;21.30;99.90;;;;;;5127768;28;20162;-70
2021/09/15 12:21:44;;;;;;;7.72;2.25;;;21.30;99.90;;;;;;5127767;28;20216;-70
2021/09/15 12:24:10;;;;;;;3.03;2.28;;;21.40;99.90;;;;;;5109017;28;20166;-70
2021/09/15 12:26:36;;;;;;;7.43;2.65;;;21.50;99.90;;;;;;5127506;28;20165;-70
2021/09/15 12:29:20;;;;;;;10.20;2.42;;;21.70;99.90;;;;;;5126961;28;20159;-70
2021/09/15 12:32:01;;;;;;;4.07;2.10;;;21.60;99.90;;;;;;5126814;28;20222;-71
2021/09/15 12:34:35;;;;;;;11.18;2.40;;;21.70;99.90;;;;;;5142822;27;20201;-71
2021/09/15 12:37:13;;;;;;;5.05;2.30;;;21.30;99.90;;;;;;5127457;28;20170;-70
2021/09/15 12:39:52;;;;;;;7.32;2.53;;;21.10;99.90;;;;;;5126795;28;20177;-71
2021/09/15 12:42:24;;;;;;;9.18;3.20;;;21.30;99.90;;;;;;5127164;28;20172;-70